CheckWX is a tool to help pilots better visualize weather data.  It is not intended as a substitute for an official pre-flight weather briefing.

01:09:13 UTC

ETHF METAR
Fritzlar Airport
Fritzlar, Germany
Current

49 mins ago

ETHF 270020Z 36001KT 9999 BKN060 05/03 Q1031 BLU
Observed
Mar-27 @ 00:20 UTC
Wind
  • 360° at 1 KTS
Visibility
10,000+ meters
Flight Rules
VFR
Cloud Levels
  • Broken at 6,000' AGL
Temperature
C / 41°F
Dewpoint
C / 37°F
Humidity
87%
Altimeter
30.44" Hg
Pressure
1030.91 hPa
Previous

2 hours ago

ETHF 262320Z 30006KT 9999 BKN056 05/03 Q1030 BLU
Observed
Mar-26 @ 23:20 UTC
Wind
  • 300° at 6 KTS
Visibility
10,000+ meters
Flight Rules
VFR
Cloud Levels
  • Broken at 5,600' AGL
Temperature
C / 41°F
Dewpoint
C / 37°F
Humidity
87%
Altimeter
30.41" Hg
Pressure
1029.91 hPa
Previous

3 hours ago

ETHF 262220Z 32009KT 9999 SCT020 BKN040 06/03 Q1030 BLU
Observed
Mar-26 @ 22:20 UTC
Wind
  • 320° at 9 KTS
Visibility
10,000+ meters
Flight Rules
VFR
Cloud Levels
  • Scattered at 2,000' AGL
  • Broken at 4,000' AGL
Temperature
C / 43°F
Dewpoint
C / 37°F
Humidity
81%
Altimeter
30.41" Hg
Pressure
1029.91 hPa